sensor_id;sensor_type;location;lat;lon;timestamp;pressure;altitude;pressure_sealevel;temperature;humidity
13050;BME280;6591;51.446;5.404;2023-01-28T00:01:26;102588.00;;;10.96;46.00
13050;BME280;6591;51.446;5.404;2023-01-28T00:03:53;102581.81;;;10.96;46.13
13050;BME280;6591;51.446;5.404;2023-01-28T00:06:21;102584.47;;;10.96;46.21
13050;BME280;6591;51.446;5.404;2023-01-28T00:08:48;102581.84;;;10.94;46.03
13050;BME280;6591;51.446;5.404;2023-01-28T00:11:15;102576.59;;;10.91;46.28
13050;BME280;6591;51.446;5.404;2023-01-28T00:13:42;102584.56;;;10.91;46.44
13050;BME280;6591;51.446;5.404;2023-01-28T00:16:11;102584.56;;;10.91;46.25
13050;BME280;6591;51.446;5.404;2023-01-28T00:18:38;102583.69;;;10.89;46.12
13050;BME280;6591;51.446;5.404;2023-01-28T00:21:10;102582.00;;;10.85;46.45
13050;BME280;6591;51.446;5.404;2023-01-28T00:23:40;102586.50;;;10.83;46.61
13050;BME280;6591;51.446;5.404;2023-01-28T00:26:13;102588.28;;;10.81;46.67
13050;BME280;6591;51.446;5.404;2023-01-28T00:28:44;102587.44;;;10.79;46.14
13050;BME280;6591;51.446;5.404;2023-01-28T00:31:22;102594.56;;;10.77;46.38
13050;BME280;6591;51.446;5.404;2023-01-28T00:33:51;102592.84;;;10.73;46.36
13050;BME280;6591;51.446;5.404;2023-01-28T00:36:20;102584.88;;;10.73;46.44
13050;BME280;6591;51.446;5.404;2023-01-28T00:38:56;102594.69;;;10.71;46.13
13050;BME280;6591;51.446;5.404;2023-01-28T00:41:27;102590.25;;;10.70;46.74
13050;BME280;6591;51.446;5.404;2023-01-28T00:43:57;102591.13;;;10.71;46.66
13050;BME280;6591;51.446;5.404;2023-01-28T00:46:25;102593.81;;;10.69;46.61
13050;BME280;6591;51.446;5.404;2023-01-28T00:48:54;102593.81;;;10.69;46.36
13050;BME280;6591;51.446;5.404;2023-01-28T00:51:21;102595.59;;;10.69;46.63
13050;BME280;6591;51.446;5.404;2023-01-28T00:53:48;102600.03;;;10.68;46.68
13050;BME280;6591;51.446;5.404;2023-01-28T00:56:17;102600.97;;;10.66;46.62
13050;BME280;6591;51.446;5.404;2023-01-28T00:58:46;102608.94;;;10.66;46.57
13050;BME280;6591;51.446;5.404;2023-01-28T01:01:21;102609.84;;;10.65;46.86
13050;BME280;6591;51.446;5.404;2023-01-28T01:03:49;102597.44;;;10.65;46.50
13050;BME280;6591;51.446;5.404;2023-01-28T01:06:36;102607.19;;;10.63;46.94
13050;BME280;6591;51.446;5.404;2023-01-28T01:09:06;102610.72;;;10.65;46.74
13050;BME280;6591;51.446;5.404;2023-01-28T01:11:34;102612.47;;;10.66;46.44
13050;BME280;6591;51.446;5.404;2023-01-28T01:14:02;102609.84;;;10.65;46.43
13050;BME280;6591;51.446;5.404;2023-01-28T01:16:32;102608.94;;;10.66;46.91
13050;BME280;6591;51.446;5.404;2023-01-28T01:19:02;102607.19;;;10.65;46.80
13050;BME280;6591;51.446;5.404;2023-01-28T01:21:30;102604.53;;;10.65;46.81
13050;BME280;6591;51.446;5.404;2023-01-28T01:23:57;102608.06;;;10.63;46.78
13050;BME280;6591;51.446;5.404;2023-01-28T01:26:24;102605.41;;;10.65;46.55
13050;BME280;6591;51.446;5.404;2023-01-28T01:28:56;102604.50;;;10.66;46.35
13050;BME280;6591;51.446;5.404;2023-01-28T01:31:23;102610.66;;;10.68;46.43
13050;BME280;6591;51.446;5.404;2023-01-28T01:33:51;102604.50;;;10.66;46.47
13050;BME280;6591;51.446;5.404;2023-01-28T01:36:19;102608.06;;;10.65;46.44
13050;BME280;6591;51.446;5.404;2023-01-28T01:38:52;102592.19;;;10.62;46.69
13050;BME280;6591;51.446;5.404;2023-01-28T01:41:30;102598.41;;;10.61;46.51
13050;BME280;6591;51.446;5.404;2023-01-28T01:44:02;102601.94;;;10.60;46.98
13050;BME280;6591;51.446;5.404;2023-01-28T01:46:47;102606.44;;;10.56;46.42
13050;BME280;6591;51.446;5.404;2023-01-28T01:49:23;102612.63;;;10.57;46.62
13050;BME280;6591;51.446;5.404;2023-01-28T01:52:02;102608.22;;;10.56;46.86
13050;BME280;6591;51.446;5.404;2023-01-28T01:54:34;102610.81;;;10.59;46.76
13050;BME280;6591;51.446;5.404;2023-01-28T01:57:06;102609.09;;;10.56;46.84
13050;BME280;6591;51.446;5.404;2023-01-28T01:59:36;102611.75;;;10.56;46.22
13050;BME280;6591;51.446;5.404;2023-01-28T02:02:08;102614.44;;;10.55;45.98
13050;BME280;6591;51.446;5.404;2023-01-28T02:04:43;102610.03;;;10.52;46.57
13050;BME280;6591;51.446;5.404;2023-01-28T02:07:26;102613.56;;;10.53;46.40
13050;BME280;6591;51.446;5.404;2023-01-28T02:09:54;102606.53;;;10.50;46.53
13050;BME280;6591;51.446;5.404;2023-01-28T02:12:27;102612.78;;;10.48;46.51
13050;BME280;6591;51.446;5.404;2023-01-28T02:15:05;102615.47;;;10.46;46.10
13050;BME280;6591;51.446;5.404;2023-01-28T02:17:35;102613.66;;;10.47;46.67
13050;BME280;6591;51.446;5.404;2023-01-28T02:20:10;102623.38;;;10.49;46.22
13050;BME280;6591;51.446;5.404;2023-01-28T02:23:25;102618.13;;;10.46;46.48
13050;BME280;6591;51.446;5.404;2023-01-28T02:34:06;102608.34;;;10.47;46.39
13050;BME280;6591;51.446;5.404;2023-01-28T02:37:23;102612.84;;;10.45;46.24
13050;BME280;6591;51.446;5.404;2023-01-28T02:39:57;102618.06;;;10.48;46.43
13050;BME280;6591;51.446;5.404;2023-01-28T02:42:38;102608.34;;;10.47;46.49
13050;BME280;6591;51.446;5.404;2023-01-28T02:45:24;102611.00;;;10.47;45.86
13050;BME280;6591;51.446;5.404;2023-01-28T02:48:14;102610.13;;;10.48;46.11
13050;BME280;6591;51.446;5.404;2023-01-28T02:53:46;102612.84;;;10.45;46.24
13050;BME280;6591;51.446;5.404;2023-01-28T02:56:42;102623.47;;;10.42;46.01
13050;BME280;6591;51.446;5.404;2023-01-28T03:02:51;102628.06;;;10.34;46.40
13050;BME280;6591;51.446;5.404;2023-01-28T03:05:30;102629.81;;;10.35;45.83
13050;BME280;6591;51.446;5.404;2023-01-28T03:08:04;102628.03;;;10.35;46.25
13050;BME280;6591;51.446;5.404;2023-01-28T03:10:55;102629.78;;;10.36;46.45
13050;BME280;6591;51.446;5.404;2023-01-28T03:13:44;102636.91;;;10.34;46.48
13050;BME280;6591;51.446;5.404;2023-01-28T03:16:34;102627.19;;;10.32;46.38
13050;BME280;6591;51.446;5.404;2023-01-28T03:19:22;102615.66;;;10.34;46.26
13050;BME280;6591;51.446;5.404;2023-01-28T03:22:08;102625.38;;;10.35;46.30
13050;BME280;6591;51.446;5.404;2023-01-28T03:24:55;102620.97;;;10.34;46.16
13050;BME280;6591;51.446;5.404;2023-01-28T03:28:16;102629.91;;;10.27;46.16
13050;BME280;6591;51.446;5.404;2023-01-28T03:31:15;102629.03;;;10.27;46.00
13050;BME280;6591;51.446;5.404;2023-01-28T03:34:04;102635.28;;;10.26;46.50
13050;BME280;6591;51.446;5.404;2023-01-28T03:36:52;102635.28;;;10.24;46.50
13050;BME280;6591;51.446;5.404;2023-01-28T03:39:31;102637.94;;;10.23;46.33
13050;BME280;6591;51.446;5.404;2023-01-28T03:42:06;102642.38;;;10.22;46.28
13050;BME280;6591;51.446;5.404;2023-01-28T03:44:39;102641.47;;;10.25;46.40
13050;BME280;6591;51.446;5.404;2023-01-28T03:47:26;102645.03;;;10.24;45.99
13050;BME280;6591;51.446;5.404;2023-01-28T03:49:55;102643.22;;;10.26;46.20
13050;BME280;6591;51.446;5.404;2023-01-28T03:52:29;102636.09;;;10.28;46.35
13050;BME280;6591;51.446;5.404;2023-01-28T03:55:21;102626.34;;;10.30;45.90
13050;BME280;6591;51.446;5.404;2023-01-28T03:57:51;102632.53;;;10.30;45.73
13050;BME280;6591;51.446;5.404;2023-01-28T04:00:18;102629.88;;;10.30;45.69
13050;BME280;6591;51.446;5.404;2023-01-28T04:02:46;102629.00;;;10.30;46.45
13050;BME280;6591;51.446;5.404;2023-01-28T04:05:15;102642.28;;;10.30;46.68
13050;BME280;6591;51.446;5.404;2023-01-28T04:07:49;102643.19;;;10.29;46.39
13050;BME280;6591;51.446;5.404;2023-01-28T04:10:40;102644.09;;;10.26;46.31
13050;BME280;6591;51.446;5.404;2023-01-28T04:13:20;102650.31;;;10.25;46.12
13050;BME280;6591;51.446;5.404;2023-01-28T04:15:48;102653.00;;;10.24;46.33
13050;BME280;6591;51.446;5.404;2023-01-28T04:18:16;102654.75;;;10.23;45.88
13050;BME280;6591;51.446;5.404;2023-01-28T04:20:48;102655.63;;;10.24;46.25
13050;BME280;6591;51.446;5.404;2023-01-28T04:23:17;102655.63;;;10.24;46.14
13050;BME280;6591;51.446;5.404;2023-01-28T04:25:49;102658.28;;;10.25;46.21
13050;BME280;6591;51.446;5.404;2023-01-28T04:28:19;102652.97;;;10.25;46.40
13050;BME280;6591;51.446;5.404;2023-01-28T04:30:47;102659.16;;;10.26;46.13
13050;BME280;6591;51.446;5.404;2023-01-28T04:33:30;102651.22;;;10.23;46.27
13050;BME280;6591;51.446;5.404;2023-01-28T04:36:02;102658.31;;;10.20;45.64
13050;BME280;6591;51.446;5.404;2023-01-28T04:38:55;102652.19;;;10.18;45.93
13050;BME280;6591;51.446;5.404;2023-01-28T04:41:35;102661.03;;;10.17;46.17
13050;BME280;6591;51.446;5.404;2023-01-28T04:44:08;102656.63;;;10.16;45.97
13050;BME280;6591;51.446;5.404;2023-01-28T04:46:53;102648.69;;;10.10;45.96
13050;BME280;6591;51.446;5.404;2023-01-28T04:49:41;102652.28;;;10.08;45.98
13050;BME280;6591;51.446;5.404;2023-01-28T04:52:25;102652.31;;;10.05;46.03
13050;BME280;6591;51.446;5.404;2023-01-28T04:54:56;102654.13;;;10.03;46.11
13050;BME280;6591;51.446;5.404;2023-01-28T04:57:23;102657.69;;;10.00;46.46
13050;BME280;6591;51.446;5.404;2023-01-28T04:59:50;102650.66;;;9.99;45.95
13050;BME280;6591;51.446;5.404;2023-01-28T05:02:19;102649.78;;;9.97;46.57
13050;BME280;6591;51.446;5.404;2023-01-28T05:04:52;102657.75;;;9.97;46.30
13050;BME280;6591;51.446;5.404;2023-01-28T05:07:39;102656.00;;;9.96;46.07
13050;BME280;6591;51.446;5.404;2023-01-28T05:10:07;102659.53;;;9.97;46.46
13050;BME280;6591;51.446;5.404;2023-01-28T05:12:35;102660.38;;;9.99;46.24
13050;BME280;6591;51.446;5.404;2023-01-28T05:15:06;102658.63;;;9.98;46.10
13050;BME280;6591;51.446;5.404;2023-01-28T05:17:34;102660.38;;;9.99;46.66
13050;BME280;6591;51.446;5.404;2023-01-28T05:20:02;102655.97;;;9.99;46.18
13050;BME280;6591;51.446;5.404;2023-01-28T05:22:30;102661.22;;;10.02;46.36
13050;BME280;6591;51.446;5.404;2023-01-28T05:25:23;102663.88;;;10.02;46.35
13050;BME280;6591;51.446;5.404;2023-01-28T05:27:52;102662.13;;;10.00;46.42
13050;BME280;6591;51.446;5.404;2023-01-28T05:30:20;102660.41;;;9.96;46.50
13050;BME280;6591;51.446;5.404;2023-01-28T05:32:47;102655.16;;;9.93;46.40
13050;BME280;6591;51.446;5.404;2023-01-28T05:35:19;102654.31;;;9.89;46.18
13050;BME280;6591;51.446;5.404;2023-01-28T05:37:46;102651.69;;;9.86;46.64
13050;BME280;6591;51.446;5.404;2023-01-28T05:40:16;102652.59;;;9.87;46.68
13050;BME280;6591;51.446;5.404;2023-01-28T05:42:43;102650.81;;;9.87;46.49
13050;BME280;6591;51.446;5.404;2023-01-28T05:45:33;102649.03;;;9.88;46.46
13050;BME280;6591;51.446;5.404;2023-01-28T05:48:04;102652.53;;;9.90;46.34
13050;BME280;6591;51.446;5.404;2023-01-28T05:51:06;102657.88;;;9.87;46.42
13050;BME280;6591;51.446;5.404;2023-01-28T05:53:35;102663.22;;;9.85;46.51
13050;BME280;6591;51.446;5.404;2023-01-28T05:56:03;102660.56;;;9.85;46.57
13050;BME280;6591;51.446;5.404;2023-01-28T05:58:31;102659.72;;;9.83;46.50
13050;BME280;6591;51.446;5.404;2023-01-28T06:01:02;102657.97;;;9.79;46.38
13050;BME280;6591;51.446;5.404;2023-01-28T06:03:38;102663.31;;;9.77;46.08
13050;BME280;6591;51.446;5.404;2023-01-28T06:06:05;102665.09;;;9.77;46.24
13050;BME280;6591;51.446;5.404;2023-01-28T06:08:32;102662.44;;;9.77;46.84
13050;BME280;6591;51.446;5.404;2023-01-28T06:10:59;102666.88;;;9.76;46.51
13050;BME280;6591;51.446;5.404;2023-01-28T06:13:31;102666.88;;;9.75;46.35
13050;BME280;6591;51.446;5.404;2023-01-28T06:16:25;102666.03;;;9.73;46.64
13050;BME280;6591;51.446;5.404;2023-01-28T06:19:30;102666.03;;;9.71;46.25
13050;BME280;6591;51.446;5.404;2023-01-28T06:21:57;102667.81;;;9.69;46.51
13050;BME280;6591;51.446;5.404;2023-01-28T06:24:25;102668.72;;;9.70;46.27
13050;BME280;6591;51.446;5.404;2023-01-28T06:26:52;102674.03;;;9.68;46.22
13050;BME280;6591;51.446;5.404;2023-01-28T06:29:20;102673.19;;;9.66;46.41
13050;BME280;6591;51.446;5.404;2023-01-28T06:31:47;102674.06;;;9.67;46.08
13050;BME280;6591;51.446;5.404;2023-01-28T06:34:14;102673.16;;;9.68;46.11
13050;BME280;6591;51.446;5.404;2023-01-28T06:36:41;102673.19;;;9.66;46.11
13050;BME280;6591;51.446;5.404;2023-01-28T06:39:09;102679.31;;;9.68;46.57
13050;BME280;6591;51.446;5.404;2023-01-28T06:41:36;102680.25;;;9.66;45.99
13050;BME280;6591;51.446;5.404;2023-01-28T06:44:03;102684.63;;;9.68;46.24
13050;BME280;6591;51.446;5.404;2023-01-28T06:46:30;102682.84;;;9.69;46.04
13050;BME280;6591;51.446;5.404;2023-01-28T06:48:57;102681.97;;;9.68;46.05
13050;BME280;6591;51.446;5.404;2023-01-28T06:51:24;102681.97;;;9.68;45.93
13050;BME280;6591;51.446;5.404;2023-01-28T06:53:51;102686.44;;;9.68;45.70
13050;BME280;6591;51.446;5.404;2023-01-28T06:56:20;102688.22;;;9.66;45.37
13050;BME280;6591;51.446;5.404;2023-01-28T06:58:47;102684.69;;;9.64;45.37
13050;BME280;6591;51.446;5.404;2023-01-28T07:01:14;102698.88;;;9.63;45.38
13050;BME280;6591;51.446;5.404;2023-01-28T07:03:41;102690.91;;;9.61;45.13
13050;BME280;6591;51.446;5.404;2023-01-28T07:06:10;102682.06;;;9.62;45.87
13050;BME280;6591;51.446;5.404;2023-01-28T07:08:37;102689.16;;;9.62;45.23
13050;BME280;6591;51.446;5.404;2023-01-28T07:11:05;102696.19;;;9.64;45.27
13050;BME280;6591;51.446;5.404;2023-01-28T07:13:33;102692.63;;;9.65;45.28
13050;BME280;6591;51.446;5.404;2023-01-28T07:16:01;102696.19;;;9.64;45.02
13050;BME280;6591;51.446;5.404;2023-01-28T07:18:28;102704.16;;;9.63;45.28
13050;BME280;6591;51.446;5.404;2023-01-28T07:20:56;102695.28;;;9.64;45.13
13050;BME280;6591;51.446;5.404;2023-01-28T07:23:23;102700.59;;;9.64;45.15
13050;BME280;6591;51.446;5.404;2023-01-28T07:25:50;102699.72;;;9.63;45.03
13050;BME280;6591;51.446;5.404;2023-01-28T07:28:20;102705.06;;;9.62;44.72
13050;BME280;6591;51.446;5.404;2023-01-28T07:30:49;102704.19;;;9.60;44.74
13050;BME280;6591;51.446;5.404;2023-01-28T07:33:20;102713.03;;;9.59;44.74
13050;BME280;6591;51.446;5.404;2023-01-28T07:35:48;102713.91;;;9.59;45.26
13050;BME280;6591;51.446;5.404;2023-01-28T07:38:15;102713.03;;;9.59;45.02
13050;BME280;6591;51.446;5.404;2023-01-28T07:40:45;102716.56;;;9.59;44.82
13050;BME280;6591;51.446;5.404;2023-01-28T07:43:12;102715.69;;;9.59;44.55
13050;BME280;6591;51.446;5.404;2023-01-28T07:45:40;102712.13;;;9.60;44.99
13050;BME280;6591;51.446;5.404;2023-01-28T07:48:11;102715.69;;;9.59;44.66
13050;BME280;6591;51.446;5.404;2023-01-28T07:50:39;102727.16;;;9.59;44.93
13050;BME280;6591;51.446;5.404;2023-01-28T07:53:10;102721.91;;;9.56;44.53
13050;BME280;6591;51.446;5.404;2023-01-28T07:55:38;102723.69;;;9.54;44.24
13050;BME280;6591;51.446;5.404;2023-01-28T07:58:07;102730.81;;;9.52;44.37
13050;BME280;6591;51.446;5.404;2023-01-28T08:00:36;102733.47;;;9.52;44.41
13050;BME280;6591;51.446;5.404;2023-01-28T08:03:11;102723.69;;;9.53;44.36
13050;BME280;6591;51.446;5.404;2023-01-28T08:05:49;102739.59;;;9.53;44.47
13050;BME280;6591;51.446;5.404;2023-01-28T08:08:21;102734.31;;;9.53;44.52
13050;BME280;6591;51.446;5.404;2023-01-28T08:10:49;102733.41;;;9.54;44.49
13050;BME280;6591;51.446;5.404;2023-01-28T08:13:17;102738.72;;;9.55;44.32
13050;BME280;6591;51.446;5.404;2023-01-28T08:15:46;102738.72;;;9.55;44.18
13050;BME280;6591;51.446;5.404;2023-01-28T08:18:15;102734.31;;;9.53;44.33
13050;BME280;6591;51.446;5.404;2023-01-28T08:20:44;102741.38;;;9.54;44.19
13050;BME280;6591;51.446;5.404;2023-01-28T08:23:17;102750.22;;;9.53;44.09
13050;BME280;6591;51.446;5.404;2023-01-28T08:25:46;102767.00;;;9.55;44.31
13050;BME280;6591;51.446;5.404;2023-01-28T08:28:16;102767.88;;;9.54;44.27
13050;BME280;6591;51.446;5.404;2023-01-28T08:30:47;102769.66;;;9.56;44.33
13050;BME280;6591;51.446;5.404;2023-01-28T08:33:16;102760.81;;;9.57;44.16
13050;BME280;6591;51.446;5.404;2023-01-28T08:35:45;102769.59;;;9.59;44.04
13050;BME280;6591;51.446;5.404;2023-01-28T08:38:13;102771.38;;;9.59;43.89
13050;BME280;6591;51.446;5.404;2023-01-28T08:40:44;102777.56;;;9.59;43.98
13050;BME280;6591;51.446;5.404;2023-01-28T08:43:12;102781.09;;;9.60;44.31
13050;BME280;6591;51.446;5.404;2023-01-28T08:45:40;102781.97;;;9.62;43.96
13050;BME280;6591;51.446;5.404;2023-01-28T08:48:13;102787.22;;;9.63;43.83
13050;BME280;6591;51.446;5.404;2023-01-28T08:50:45;102785.44;;;9.67;44.05
13050;BME280;6591;51.446;5.404;2023-01-28T08:53:16;102776.56;;;9.69;43.57
13050;BME280;6591;51.446;5.404;2023-01-28T08:55:45;102785.34;;;9.74;43.76
13050;BME280;6591;51.446;5.404;2023-01-28T08:58:16;102783.53;;;9.81;43.68
13050;BME280;6591;51.446;5.404;2023-01-28T09:00:45;102788.75;;;9.87;44.15
13050;BME280;6591;51.446;5.404;2023-01-28T09:03:12;102795.78;;;9.94;44.13
13050;BME280;6591;51.446;5.404;2023-01-28T09:05:39;102800.97;;;10.00;44.24
13050;BME280;6591;51.446;5.404;2023-01-28T09:08:11;102804.44;;;10.08;44.15
13050;BME280;6591;51.446;5.404;2023-01-28T09:10:39;102785.81;;;10.13;44.46
13050;BME280;6591;51.446;5.404;2023-01-28T09:13:14;102795.53;;;10.17;44.24
13050;BME280;6591;51.446;5.404;2023-01-28T09:15:42;102794.56;;;10.21;44.00
13050;BME280;6591;51.446;5.404;2023-01-28T09:18:12;102799.84;;;10.26;44.16
13050;BME280;6591;51.446;5.404;2023-01-28T09:20:39;102799.81;;;10.29;44.02
13050;BME280;6591;51.446;5.404;2023-01-28T09:23:08;102802.41;;;10.33;43.82
13050;BME280;6591;51.446;5.404;2023-01-28T09:25:37;102805.94;;;10.35;43.79
13050;BME280;6591;51.446;5.404;2023-01-28T09:28:05;102813.84;;;10.38;44.00
13050;BME280;6591;51.446;5.404;2023-01-28T09:30:32;102802.31;;;10.41;44.08
13050;BME280;6591;51.446;5.404;2023-01-28T09:33:06;102810.22;;;10.44;43.96
13050;BME280;6591;51.446;5.404;2023-01-28T09:35:34;102814.66;;;10.45;43.80
13050;BME280;6591;51.446;5.404;2023-01-28T09:38:02;102808.44;;;10.46;43.69
13050;BME280;6591;51.446;5.404;2023-01-28T09:40:38;102813.75;;;10.44;43.58
13050;BME280;6591;51.446;5.404;2023-01-28T09:46:14;102815.69;;;10.32;42.61
13050;BME280;6591;51.446;5.404;2023-01-28T09:48:50;102833.44;;;10.27;42.24
13050;BME280;6591;51.446;5.404;2023-01-28T09:51:40;102823.81;;;10.19;42.44
13050;BME280;6591;51.446;5.404;2023-01-28T09:54:39;102815.88;;;10.13;43.33
13050;BME280;6591;51.446;5.404;2023-01-28T09:57:30;102803.50;;;10.14;42.77
13050;BME280;6591;51.446;5.404;2023-01-28T10:00:32;102821.19;;;10.15;43.29
13050;BME280;6591;51.446;5.404;2023-01-28T10:09:15;102822.06;;;10.14;43.09
13050;BME280;6591;51.446;5.404;2023-01-28T10:17:53;102831.81;;;10.15;42.97
13050;BME280;6591;51.446;5.404;2023-01-28T10:21:04;102836.22;;;10.16;43.14
13050;BME280;6591;51.446;5.404;2023-01-28T10:23:48;102848.56;;;10.22;43.09
13050;BME280;6591;51.446;5.404;2023-01-28T10:26:40;102852.13;;;10.19;43.08
13050;BME280;6591;51.446;5.404;2023-01-28T10:29:17;102845.91;;;10.22;42.88
13050;BME280;6591;51.446;5.404;2023-01-28T10:31:58;102846.84;;;10.17;43.01
13050;BME280;6591;51.446;5.404;2023-01-28T10:34:28;102847.72;;;10.16;42.87
13050;BME280;6591;51.446;5.404;2023-01-28T10:36:58;102857.47;;;10.14;42.51
13050;BME280;6591;51.446;5.404;2023-01-28T10:39:25;102831.81;;;10.10;42.80
13050;BME280;6591;51.446;5.404;2023-01-28T10:41:54;102843.38;;;10.09;43.17
13050;BME280;6591;51.446;5.404;2023-01-28T10:44:33;102843.38;;;10.06;42.75
13050;BME280;6591;51.446;5.404;2023-01-28T10:47:15;102846.03;;;10.06;42.87
13050;BME280;6591;51.446;5.404;2023-01-28T10:49:53;102837.13;;;10.10;42.71
13050;BME280;6591;51.446;5.404;2023-01-28T10:52:22;102848.63;;;10.12;42.65
13050;BME280;6591;51.446;5.404;2023-01-28T10:55:04;102845.97;;;10.11;42.85
13050;BME280;6591;51.446;5.404;2023-01-28T10:57:41;102832.69;;;10.12;42.71
13050;BME280;6591;51.446;5.404;2023-01-28T11:00:23;102839.75;;;10.16;42.90
13050;BME280;6591;51.446;5.404;2023-01-28T11:02:53;102835.34;;;10.17;42.23
13050;BME280;6591;51.446;5.404;2023-01-28T11:05:27;102831.81;;;10.13;42.52
13050;BME280;6591;51.446;5.404;2023-01-28T11:08:13;102843.31;;;10.12;42.50
13050;BME280;6591;51.446;5.404;2023-01-28T11:10:42;102845.97;;;10.11;42.56
13050;BME280;6591;51.446;5.404;2023-01-28T11:13:29;102832.75;;;10.06;42.27
13050;BME280;6591;51.446;5.404;2023-01-28T11:16:16;102839.00;;;10.04;42.19
13050;BME280;6591;51.446;5.404;2023-01-28T11:19:03;102848.72;;;10.03;42.54
13050;BME280;6591;51.446;5.404;2023-01-28T11:21:34;102845.16;;;10.07;42.58
13050;BME280;6591;51.446;5.404;2023-01-28T11:24:13;102844.28;;;10.05;42.90
13050;BME280;6591;51.446;5.404;2023-01-28T11:26:48;102823.97;;;10.04;42.68
13050;BME280;6591;51.446;5.404;2023-01-28T11:29:30;102821.28;;;10.06;42.59
13050;BME280;6591;51.446;5.404;2023-01-28T11:31:59;102815.94;;;10.07;42.39
13050;BME280;6591;51.446;5.404;2023-01-28T11:34:34;102805.38;;;10.04;42.46
13050;BME280;6591;51.446;5.404;2023-01-28T11:37:14;102810.72;;;10.01;42.39
13050;BME280;6591;51.446;5.404;2023-01-28T11:39:44;102800.97;;;10.03;42.73
13050;BME280;6591;51.446;5.404;2023-01-28T11:42:21;102797.44;;;10.04;42.52
13050;BME280;6591;51.446;5.404;2023-01-28T11:44:49;102798.25;;;10.09;42.44
13050;BME280;6591;51.446;5.404;2023-01-28T11:50:11;102785.69;;;10.25;42.37
13050;BME280;6591;51.446;5.404;2023-01-28T12:02:19;102773.94;;;10.44;42.79
13050;BME280;6591;51.446;5.404;2023-01-28T12:08:16;102741.63;;;10.73;42.52
13050;BME280;6591;51.446;5.404;2023-01-28T12:11:36;102709.56;;;10.84;42.74
13050;BME280;6591;51.446;5.404;2023-01-28T12:14:56;102693.63;;;10.85;42.35
13050;BME280;6591;51.446;5.404;2023-01-28T12:18:02;102689.97;;;10.92;42.51
13050;BME280;6591;51.446;5.404;2023-01-28T12:21:05;102693.31;;;11.03;43.07
13050;BME280;6591;51.446;5.404;2023-01-28T12:23:53;102690.47;;;11.14;42.67
13050;BME280;6591;51.446;5.404;2023-01-28T12:26:34;102684.00;;;11.27;43.17
13050;BME280;6591;51.446;5.404;2023-01-28T12:35:28;102705.44;;;11.66;42.25
13050;BME280;6591;51.446;5.404;2023-01-28T12:38:14;102706.19;;;11.74;42.74
13050;BME280;6591;51.446;5.404;2023-01-28T12:40:49;102709.50;;;11.85;42.72
13050;BME280;6591;51.446;5.404;2023-01-28T12:43:26;102712.06;;;11.91;42.70
13050;BME280;6591;51.446;5.404;2023-01-28T12:52:15;102734.22;;;11.92;42.25
13050;BME280;6591;51.446;5.404;2023-01-28T12:54:56;102738.78;;;11.85;41.69
13050;BME280;6591;51.446;5.404;2023-01-28T12:57:29;102749.59;;;11.77;41.42
13050;BME280;6591;51.446;5.404;2023-01-28T13:00:25;102746.25;;;11.66;41.96
13050;BME280;6591;51.446;5.404;2023-01-28T13:03:10;102753.38;;;11.63;41.79
13050;BME280;6591;51.446;5.404;2023-01-28T13:06:00;102742.91;;;11.55;42.14
13050;BME280;6591;51.446;5.404;2023-01-28T13:08:31;102749.00;;;11.60;41.90
13050;BME280;6591;51.446;5.404;2023-01-28T13:11:03;102744.50;;;11.64;42.34
13050;BME280;6591;51.446;5.404;2023-01-28T13:13:37;102739.00;;;11.74;42.02
13050;BME280;6591;51.446;5.404;2023-01-28T13:16:09;102742.31;;;11.87;42.44
13050;BME280;6591;51.446;5.404;2023-01-28T13:21:28;102742.91;;;12.00;41.62
13050;BME280;6591;51.446;5.404;2023-01-28T13:24:18;102736.72;;;11.99;41.35
13050;BME280;6591;51.446;5.404;2023-01-28T13:26:55;102735.78;;;12.02;41.49
13050;BME280;6591;51.446;5.404;2023-01-28T13:29:30;102733.03;;;12.06;41.91
13050;BME280;6591;51.446;5.404;2023-01-28T13:32:03;102731.94;;;12.15;41.63
13050;BME280;6591;51.446;5.404;2023-01-28T13:35:03;102735.38;;;12.20;41.81
13050;BME280;6591;51.446;5.404;2023-01-28T13:37:39;102722.06;;;12.21;41.59
13050;BME280;6591;51.446;5.404;2023-01-28T13:42:44;102729.91;;;12.27;41.80
13050;BME280;6591;51.446;5.404;2023-01-28T13:47:50;102731.03;;;12.16;40.95
13050;BME280;6591;51.446;5.404;2023-01-28T13:50:32;102713.47;;;12.09;40.95
13050;BME280;6591;51.446;5.404;2023-01-28T13:53:23;102718.91;;;12.03;41.59
13050;BME280;6591;51.446;5.404;2023-01-28T13:55:57;102710.09;;;11.99;41.05
13050;BME280;6591;51.446;5.404;2023-01-28T14:13:17;102672.53;;;12.13;42.04
13050;BME280;6591;51.446;5.404;2023-01-28T14:18:47;102666.59;;;12.40;42.06
13050;BME280;6591;51.446;5.404;2023-01-28T14:21:19;102679.69;;;12.49;41.75
13050;BME280;6591;51.446;5.404;2023-01-28T14:23:51;102673.34;;;12.55;41.69
13050;BME280;6591;51.446;5.404;2023-01-28T14:26:47;102669.78;;;12.54;41.11
13050;BME280;6591;51.446;5.404;2023-01-28T14:32:52;102685.03;;;12.49;41.25
13050;BME280;6591;51.446;5.404;2023-01-28T14:35:33;102699.34;;;12.45;40.73
13050;BME280;6591;51.446;5.404;2023-01-28T14:38:16;102707.38;;;12.42;40.92
13050;BME280;6591;51.446;5.404;2023-01-28T14:40:48;102703.13;;;12.35;40.77
13050;BME280;6591;51.446;5.404;2023-01-28T14:43:21;102702.31;;;12.30;40.92
13050;BME280;6591;51.446;5.404;2023-01-28T14:46:01;102690.84;;;12.28;41.57
13050;BME280;6591;51.446;5.404;2023-01-28T14:54:57;102720.81;;;12.38;41.54
13050;BME280;6591;51.446;5.404;2023-01-28T14:57:57;102718.13;;;12.39;41.53
13050;BME280;6591;51.446;5.404;2023-01-28T15:00:30;102713.56;;;12.44;41.62
13050;BME280;6591;51.446;5.404;2023-01-28T15:02:58;102715.31;;;12.45;41.12
13050;BME280;6591;51.446;5.404;2023-01-28T15:05:28;102705.47;;;12.47;41.02
13050;BME280;6591;51.446;5.404;2023-01-28T15:07:55;102709.00;;;12.49;40.97
13050;BME280;6591;51.446;5.404;2023-01-28T15:10:31;102713.56;;;12.44;41.04
13050;BME280;6591;51.446;5.404;2023-01-28T15:13:19;102718.94;;;12.41;41.06
13050;BME280;6591;51.446;5.404;2023-01-28T15:15:50;102710.03;;;12.42;40.83
13050;BME280;6591;51.446;5.404;2023-01-28T15:18:29;102712.69;;;12.44;40.97